Time;durP1;ratioP1;P1;durP2;ratioP2;P2;SDS_P1;SDS_P2;PMS_P1;PMS_P2;Temp;Humidity;BMP_temperature;BMP_pressure;BME280_temperature;BME280_humidity;BME280_pressure;Samples;Min_cycle;Max_cycle;Signal;HPM_P1;HPM_P2
2022/10/12 00:02:01;;;;;;;12.02;5.72;;;;;;;12.94;55.01;102447.25;5083952;28;20050;-67
2022/10/12 00:04:29;;;;;;;10.40;5.07;;;;;;;12.92;54.69;102452.03;5086162;28;20063;-66
2022/10/12 00:06:57;;;;;;;9.55;5.18;;;;;;;12.92;54.67;102451.19;5081906;28;20417;-67
2022/10/12 00:09:25;;;;;;;9.50;5.43;;;;;;;12.91;54.94;102449.53;5089098;28;20050;-67
2022/10/12 00:11:53;;;;;;;10.23;5.07;;;;;;;12.88;54.56;102448.06;5081105;28;20045;-66
2022/10/12 00:14:22;;;;;;;12.95;5.75;;;;;;;12.88;54.39;102449.91;5087104;28;20044;-66
2022/10/12 00:16:50;;;;;;;10.45;5.35;;;;;;;12.87;54.83;102437.47;5084794;28;20052;-66
2022/10/12 00:19:17;;;;;;;12.40;4.90;;;;;;;12.85;54.56;102444.91;5079096;28;20048;-66
2022/10/12 00:21:45;;;;;;;10.02;4.97;;;;;;;12.85;54.95;102442.22;5081629;28;20066;-66
2022/10/12 00:24:13;;;;;;;15.77;5.65;;;;;;;12.83;55.03;102444.28;5079497;28;20048;-66
2022/10/12 00:26:41;;;;;;;10.30;5.60;;;;;;;12.82;54.64;102434.53;5087262;28;20063;-66
2022/10/12 00:29:09;;;;;;;11.00;5.55;;;;;;;12.81;54.87;102439.09;5089137;28;20071;-66
2022/10/12 00:31:38;;;;;;;9.38;4.72;;;;;;;12.78;55.12;102444.88;5079716;28;20044;-67
2022/10/12 00:34:06;;;;;;;11.00;4.97;;;;;;;12.79;54.83;102445.72;5087371;28;20071;-66
2022/10/12 00:36:35;;;;;;;10.18;4.70;;;;;;;12.69;54.95;102432.56;5080731;28;20040;-66
2022/10/12 00:39:06;;;;;;;12.88;5.20;;;;;;;12.77;54.91;102440.50;5083987;28;20058;-66
2022/10/12 00:41:36;;;;;;;8.80;4.80;;;;;;;12.78;54.92;102435.94;5081603;28;20075;-67
2022/10/12 00:44:04;;;;;;;10.80;4.95;;;;;;;12.76;54.52;102438.84;5079365;28;20058;-66
2022/10/12 00:46:35;;;;;;;9.15;4.63;;;;;;;12.76;54.99;102440.72;5087199;28;20048;-66
2022/10/12 00:49:12;;;;;;;10.77;5.57;;;;;;;12.75;54.95;102439.88;5079923;28;20056;-66
2022/10/12 00:51:44;;;;;;;10.02;4.97;;;;;;;12.75;54.87;102439.88;5097508;28;20048;-66
2022/10/12 00:54:16;;;;;;;11.60;5.78;;;;;;;12.74;54.86;102440.91;5077022;28;20037;-66
2022/10/12 00:56:46;;;;;;;11.90;5.07;;;;;;;12.74;54.98;102440.06;5084136;28;20055;-66
2022/10/12 00:59:18;;;;;;;10.10;4.88;;;;;;;12.73;54.96;102441.94;5084785;28;20052;-66
2022/10/12 01:01:46;;;;;;;8.00;4.75;;;;;;;12.70;54.71;102443.16;5076558;28;20059;-66
2022/10/12 01:04:15;;;;;;;10.60;4.95;;;;;;;12.69;54.95;102452.28;5076298;28;20041;-66
2022/10/12 01:06:43;;;;;;;11.60;4.65;;;;;;;12.68;55.04;102455.19;5072947;28;20055;-66
2022/10/12 01:09:11;;;;;;;8.15;4.70;;;;;;;12.61;55.12;102430.03;5083250;28;20044;-66
2022/10/12 01:11:39;;;;;;;9.38;5.07;;;;;;;12.64;54.63;102443.94;5090416;28;20044;-66
2022/10/12 01:14:08;;;;;;;14.75;6.28;;;;;;;12.65;54.80;102442.09;5089247;28;20052;-66
2022/10/12 01:16:42;;;;;;;9.32;4.88;;;;;;;12.58;54.50;102425.84;5082963;28;20057;-66
2022/10/12 01:19:28;;;;;;;9.38;4.95;;;;;;;12.64;54.64;102430.47;5077901;28;20048;-66
2022/10/12 01:22:02;;;;;;;8.48;4.80;;;;;;;12.63;54.69;102423.41;5074370;28;20074;-66
2022/10/12 01:24:49;;;;;;;9.25;4.82;;;;;;;12.63;54.95;102430.66;5086009;28;20052;-66
2022/10/12 01:27:31;;;;;;;7.43;4.68;;;;;;;12.62;55.10;102426.28;5082746;28;20056;-66
2022/10/12 01:30:25;;;;;;;11.90;5.05;;;;;;;12.60;54.82;102418.41;5082494;28;20053;-66
2022/10/12 01:33:34;;;;;;;8.27;4.63;;;;;;;12.57;55.20;102415.25;5076911;28;20048;-66
2022/10/12 01:36:09;;;;;;;11.38;4.88;;;;;;;12.57;55.31;102410.69;5014829;28;20054;-66
2022/10/12 01:38:44;;;;;;;10.30;5.25;;;;;;;12.57;55.04;102413.41;5018110;28;20054;-66
2022/10/12 01:41:18;;;;;;;12.15;5.20;;;;;;;12.53;55.39;102412.13;5017658;28;20057;-66
2022/10/12 01:43:46;;;;;;;8.35;5.40;;;;;;;12.52;55.17;102405.06;5007878;28;20048;-66
2022/10/12 01:46:41;;;;;;;9.23;4.82;;;;;;;12.52;55.31;102409.63;5020229;28;20056;-66
2022/10/12 01:49:10;;;;;;;10.95;5.00;;;;;;;12.51;55.25;102406.09;5019228;28;20092;-66
2022/10/12 01:51:51;;;;;;;9.93;4.97;;;;;;;12.50;55.39;102398.19;5016801;28;20058;-66
2022/10/12 01:54:27;;;;;;;8.10;4.47;;;;;;;12.48;55.57;102397.56;5018176;28;20054;-66
2022/10/12 01:57:02;;;;;;;8.77;5.27;;;;;;;12.47;55.57;102401.28;5021318;28;20068;-66
2022/10/12 01:59:41;;;;;;;11.73;5.10;;;;;;;12.45;55.43;102409.56;5018014;28;20311;-66
2022/10/12 02:02:18;;;;;;;11.50;5.40;;;;;;;12.44;55.32;102399.81;5016958;28;20053;-66
2022/10/12 02:04:51;;;;;;;12.13;5.72;;;;;;;12.44;55.27;102396.28;5020177;28;20041;-66
2022/10/12 02:07:25;;;;;;;13.68;5.82;;;;;;;12.43;55.57;102386.53;5015761;28;20046;-66
2022/10/12 02:09:58;;;;;;;9.55;5.60;;;;;;;12.33;55.28;102376.94;5017303;28;20495;-66
2022/10/12 02:12:30;;;;;;;15.70;5.30;;;;;;;12.42;55.43;102392.97;5059386;28;20089;-66
2022/10/12 02:15:02;;;;;;;9.25;4.78;;;;;;;12.40;55.38;102385.06;5073310;28;20052;-66
2022/10/12 02:17:34;;;;;;;11.52;5.43;;;;;;;12.36;55.63;102379.22;5091049;28;20488;-66
2022/10/12 02:20:05;;;;;;;9.68;5.03;;;;;;;12.37;55.74;102383.59;5079665;28;20059;-66
2022/10/12 02:22:38;;;;;;;12.60;5.55;;;;;;;12.37;55.59;102380.06;5077955;28;20045;-66
2022/10/12 02:25:09;;;;;;;13.35;5.57;;;;;;;12.35;55.52;102385.66;5084142;28;20413;-66
2022/10/12 02:27:43;;;;;;;12.70;4.93;;;;;;;12.34;55.34;102381.28;5082941;28;20052;-66
2022/10/12 02:30:12;;;;;;;12.70;5.03;;;;;;;12.33;55.69;102379.63;5083710;28;20050;-66
2022/10/12 02:32:48;;;;;;;8.50;4.20;;;;;;;12.23;55.61;102365.66;5082689;28;20048;-66
2022/10/12 02:35:24;;;;;;;9.45;5.43;;;;;;;12.32;55.52;102382.50;5077565;28;20041;-66
2022/10/12 02:37:56;;;;;;;10.73;5.35;;;;;;;12.31;55.78;102381.69;5083492;28;20124;-66
2022/10/12 02:40:31;;;;;;;11.48;4.85;;;;;;;12.29;55.65;102375.66;5081324;28;20048;-66
2022/10/12 02:43:06;;;;;;;12.10;5.60;;;;;;;12.28;55.47;102381.25;5071124;28;20056;-66
2022/10/12 02:45:40;;;;;;;10.20;5.38;;;;;;;12.27;55.88;102376.88;5078575;28;20056;-66
2022/10/12 02:48:14;;;;;;;11.90;4.90;;;;;;;12.27;55.66;102379.56;5082236;28;20059;-66
2022/10/12 02:50:43;;;;;;;9.25;4.93;;;;;;;12.26;55.54;102375.22;5076161;28;20055;-66
2022/10/12 02:53:11;;;;;;;8.20;4.20;;;;;;;12.26;55.47;102375.22;5083302;28;20048;-66
2022/10/12 02:55:47;;;;;;;8.27;4.68;;;;;;;12.24;55.67;102366.47;5082237;28;20056;-66
2022/10/12 02:58:15;;;;;;;11.27;4.53;;;;;;;12.25;55.58;102365.44;5079497;28;20044;-66
2022/10/12 03:00:43;;;;;;;10.98;5.55;;;;;;;12.25;55.46;102370.84;5087364;28;20049;-66
2022/10/12 03:03:12;;;;;;;9.57;5.32;;;;;;;12.23;55.96;102362.13;5086507;28;20120;-66
2022/10/12 03:05:40;;;;;;;9.00;4.57;;;;;;;12.22;55.59;102363.97;5086594;28;20044;-66
2022/10/12 03:08:08;;;;;;;9.38;4.60;;;;;;;12.22;55.28;102366.69;5096300;28;20048;-66
2022/10/12 03:10:35;;;;;;;13.18;5.10;;;;;;;12.21;55.44;102358.78;5084094;28;20052;-66
2022/10/12 03:13:03;;;;;;;11.88;5.07;;;;;;;12.20;55.38;102365.22;5080232;28;20040;-66
2022/10/12 03:15:31;;;;;;;9.07;4.75;;;;;;;12.20;55.20;102357.97;5073740;28;20045;-66
2022/10/12 03:17:59;;;;;;;13.38;5.47;;;;;;;12.19;55.31;102358.16;5085624;28;20066;-66
2022/10/12 03:20:28;;;;;;;8.48;4.43;;;;;;;12.18;55.31;102353.78;5084559;28;20057;-66
2022/10/12 03:22:56;;;;;;;8.40;4.78;;;;;;;12.17;55.04;102358.34;5089086;28;20049;-66
2022/10/12 03:25:23;;;;;;;8.80;5.05;;;;;;;12.17;55.13;102360.22;5090448;28;20051;-65
2022/10/12 03:27:51;;;;;;;8.93;4.93;;;;;;;12.15;55.29;102354.19;5084167;28;20111;-66
2022/10/12 03:30:19;;;;;;;12.80;5.75;;;;;;;12.13;55.36;102346.31;5086007;28;20052;-66
2022/10/12 03:32:47;;;;;;;9.80;4.60;;;;;;;12.13;55.10;102350.88;5084504;28;20052;-65
2022/10/12 03:35:15;;;;;;;12.27;4.45;;;;;;;12.12;55.22;102352.75;5083183;28;20060;-65
2022/10/12 03:37:44;;;;;;;10.18;4.65;;;;;;;12.10;55.20;102356.66;5087920;28;20067;-65
2022/10/12 03:40:12;;;;;;;12.45;5.18;;;;;;;12.08;55.31;102354.16;5085503;28;20143;-65
2022/10/12 03:42:40;;;;;;;10.43;4.63;;;;;;;12.08;54.97;102353.31;5081389;28;20048;-65
2022/10/12 03:45:09;;;;;;;10.77;4.45;;;;;;;12.07;55.00;102349.78;5097147;28;20084;-65
2022/10/12 03:47:37;;;;;;;8.50;4.80;;;;;;;12.05;55.11;102358.06;5086789;28;20466;-66
2022/10/12 03:50:06;;;;;;;10.63;4.82;;;;;;;12.05;55.11;102355.38;5076448;28;20064;-66
2022/10/12 03:52:34;;;;;;;10.27;5.28;;;;;;;12.04;55.02;102355.56;5086351;28;20052;-66
2022/10/12 03:55:03;;;;;;;9.18;4.75;;;;;;;12.02;55.03;102349.53;5082543;28;20048;-66
2022/10/12 03:57:31;;;;;;;8.43;4.93;;;;;;;12.00;55.19;102348.91;5082818;28;20060;-65
2022/10/12 03:59:59;;;;;;;11.23;5.10;;;;;;;11.98;54.99;102351.78;5084504;28;20052;-65
2022/10/12 04:02:27;;;;;;;12.13;5.00;;;;;;;11.97;54.77;102336.66;5085930;28;20048;-66
2022/10/12 04:04:54;;;;;;;13.65;5.63;;;;;;;11.97;54.98;102341.22;5079500;28;20574;-65
2022/10/12 04:07:22;;;;;;;12.75;5.00;;;;;;;11.95;54.83;102340.56;5079577;28;20056;-65
2022/10/12 04:09:50;;;;;;;8.95;4.30;;;;;;;11.94;54.85;102339.75;5083150;28;20057;-65
2022/10/12 04:12:19;;;;;;;11.13;5.00;;;;;;;11.91;54.79;102342.00;5087875;28;20045;-66
2022/10/12 04:14:47;;;;;;;10.77;5.50;;;;;;;11.89;54.92;102338.66;5080680;28;20052;-65
2022/10/12 04:17:15;;;;;;;10.90;5.20;;;;;;;11.88;54.79;102337.81;5084229;28;20056;-65
2022/10/12 04:19:43;;;;;;;8.52;5.15;;;;;;;11.86;54.57;102331.78;5080093;28;20059;-66
2022/10/12 04:22:11;;;;;;;11.32;4.50;;;;;;;11.86;54.86;102333.66;5076577;28;20828;-66
2022/10/12 04:24:38;;;;;;;7.88;4.70;;;;;;;11.85;55.08;102337.38;5097003;28;20549;-66
2022/10/12 04:27:06;;;;;;;10.68;5.00;;;;;;;11.83;54.84;102334.88;5078504;28;20048;-66
2022/10/12 04:29:36;;;;;;;8.65;4.68;;;;;;;11.83;54.75;102334.03;5084675;28;20055;-67
2022/10/12 04:32:03;;;;;;;9.60;4.40;;;;;;;11.81;54.93;102334.22;5086001;28;20060;-66
2022/10/12 04:34:38;;;;;;;13.35;5.25;;;;;;;11.79;54.87;102338.97;5085100;28;20178;-66
2022/10/12 04:37:06;;;;;;;11.40;5.97;;;;;;;11.78;54.90;102337.31;5084823;28;20052;-66
2022/10/12 04:39:34;;;;;;;8.50;4.50;;;;;;;11.77;54.88;102341.03;5084823;28;20040;-66
2022/10/12 04:42:02;;;;;;;11.70;4.70;;;;;;;11.77;54.98;102335.66;5086402;28;20052;-66
2022/10/12 04:44:29;;;;;;;11.80;4.82;;;;;;;11.75;54.80;102334.97;5074431;28;20048;-66
2022/10/12 04:47:00;;;;;;;10.45;4.85;;;;;;;11.73;54.85;102340.56;5078881;28;20082;-66
2022/10/12 04:49:28;;;;;;;7.47;4.03;;;;;;;11.74;54.78;102342.22;5086872;28;20429;-66
2022/10/12 04:51:56;;;;;;;12.23;5.07;;;;;;;11.72;54.73;102338.06;5084218;28;20045;-66
2022/10/12 04:54:24;;;;;;;8.27;4.60;;;;;;;11.71;54.81;102339.91;5080946;28;20051;-66
2022/10/12 04:56:51;;;;;;;8.95;4.20;;;;;;;11.69;54.80;102344.66;5081771;28;20048;-66
2022/10/12 04:59:19;;;;;;;11.52;5.00;;;;;;;11.69;55.06;102350.03;5081144;28;20107;-69
2022/10/12 05:01:47;;;;;;;10.25;4.53;;;;;;;11.68;54.91;102348.38;5076029;28;20211;-70
2022/10/12 05:04:16;;;;;;;9.15;4.47;;;;;;;11.65;54.96;102348.75;5080989;28;20048;-66
2022/10/12 05:06:44;;;;;;;9.68;4.70;;;;;;;11.65;54.89;102356.00;5080000;28;20048;-67
2022/10/12 05:09:12;;;;;;;9.90;4.57;;;;;;;11.65;54.83;102345.25;5085747;28;20049;-67
2022/10/12 05:11:43;;;;;;;9.10;5.25;;;;;;;11.63;54.68;102340.03;5092553;28;20497;-68
2022/10/12 05:14:11;;;;;;;9.05;5.13;;;;;;;11.62;54.73;102346.44;5076619;28;20055;-65
2022/10/12 05:16:39;;;;;;;14.05;4.40;;;;;;;11.62;54.89;102337.53;5082592;28;20044;-66
2022/10/12 05:19:07;;;;;;;13.00;4.30;;;;;;;11.59;54.77;102335.22;5085601;28;20494;-67
2022/10/12 05:21:38;;;;;;;12.38;4.95;;;;;;;11.61;54.76;102334.00;5080932;28;20063;-67
2022/10/12 05:24:06;;;;;;;9.38;4.03;;;;;;;11.59;54.81;102330.69;5084593;28;20412;-66
2022/10/12 05:26:34;;;;;;;9.57;4.82;;;;;;;11.59;54.74;102321.78;5078277;28;20041;-67
2022/10/12 05:29:02;;;;;;;10.27;4.63;;;;;;;11.58;55.03;102320.09;5093156;28;20485;-66
2022/10/12 05:31:30;;;;;;;11.15;4.68;;;;;;;11.54;54.77;102313.44;5075981;28;20508;-67
2022/10/12 05:33:58;;;;;;;15.65;4.57;;;;;;;11.52;54.73;102304.72;5079005;28;20048;-66
2022/10/12 05:36:26;;;;;;;10.35;4.90;;;;;;;11.54;54.83;102311.56;5080950;28;20054;-67
2022/10/12 05:38:55;;;;;;;8.18;3.80;;;;;;;11.51;54.57;102311.97;5080322;28;20041;-66
2022/10/12 05:41:22;;;;;;;11.63;4.30;;;;;;;11.52;54.72;102316.31;5081193;28;20062;-67
2022/10/12 05:43:52;;;;;;;7.60;4.03;;;;;;;11.51;54.71;102313.81;5081533;28;20058;-67
2022/10/12 05:46:19;;;;;;;7.78;3.88;;;;;;;11.50;54.61;102323.75;5079264;28;20565;-73
2022/10/12 05:48:47;;;;;;;8.50;3.97;;;;;;;11.48;54.90;102317.72;5093751;28;20048;-65
2022/10/12 05:51:15;;;;;;;12.63;3.70;;;;;;;11.48;54.76;102323.13;4720349;28;9999900;-65
2022/10/12 05:53:43;;;;;;;8.98;4.00;;;;;;;11.47;54.77;102321.44;5078283;28;20094;-64
2022/10/12 05:56:12;;;;;;;7.50;3.78;;;;;;;11.46;54.77;102317.09;5082209;28;20052;-64
2022/10/12 05:58:41;;;;;;;6.70;4.05;;;;;;;11.44;55.14;102311.06;5079199;28;20057;-64
2022/10/12 06:01:11;;;;;;;11.43;4.07;;;;;;;11.46;54.81;102314.41;5067816;28;20048;-64
2022/10/12 06:03:39;;;;;;;11.73;4.35;;;;;;;11.45;55.07;102319.97;5076600;28;20052;-65
2022/10/12 06:06:07;;;;;;;13.90;4.57;;;;;;;11.45;54.98;102318.13;5078997;28;20469;-65
2022/10/12 06:08:35;;;;;;;7.68;4.18;;;;;;;11.45;55.05;102323.50;5075117;28;20063;-64
2022/10/12 06:11:03;;;;;;;10.70;4.45;;;;;;;11.45;55.20;102320.81;5076370;28;20053;-64
2022/10/12 06:13:32;;;;;;;9.68;4.43;;;;;;;11.34;55.12;102303.28;5091480;28;20048;-68
2022/10/12 06:16:00;;;;;;;18.17;4.78;;;;;;;11.41;55.11;102319.53;5079397;28;20044;-66
2022/10/12 06:18:28;;;;;;;10.35;4.18;;;;;;;11.29;55.31;102315.66;5087574;28;20040;-65
2022/10/12 06:20:56;;;;;;;10.65;4.15;;;;;;;11.35;55.31;102323.81;5080217;28;20541;-65
2022/10/12 06:23:44;;;;;;;9.45;3.83;;;;;;;11.36;55.34;102324.63;5071839;28;20063;-65
2022/10/12 06:26:11;;;;;;;13.13;4.28;;;;;;;11.36;55.42;102316.56;5083102;28;20187;-65
2022/10/12 06:28:41;;;;;;;10.63;4.55;;;;;;;11.34;55.39;102324.00;5075862;28;20049;-66
2022/10/12 06:31:09;;;;;;;10.82;4.22;;;;;;;11.33;55.43;102322.34;5087899;28;20445;-65
2022/10/12 06:33:37;;;;;;;10.07;3.70;;;;;;;11.32;55.66;102321.50;5086667;28;20140;-65
2022/10/12 06:36:05;;;;;;;10.15;3.95;;;;;;;11.34;55.41;102329.38;5080976;28;20040;-70
2022/10/12 06:38:33;;;;;;;9.75;4.05;;;;;;;11.33;55.54;102319.63;5089697;28;20044;-67
2022/10/12 06:41:00;;;;;;;7.85;4.47;;;;;;;11.32;55.28;102323.34;5079103;28;20056;-67
2022/10/12 06:43:28;;;;;;;10.77;4.65;;;;;;;11.30;55.50;102323.53;5084722;28;20052;-68
2022/10/12 06:46:01;;;;;;;10.27;3.97;;;;;;;11.21;55.81;102311.22;5083368;28;20048;-67
2022/10/12 06:48:29;;;;;;;7.15;4.53;;;;;;;11.28;55.66;102322.91;5075842;28;20075;-67
2022/10/12 06:50:57;;;;;;;9.13;4.03;;;;;;;11.28;55.89;102320.22;5076279;28;20071;-66
2022/10/12 06:53:27;;;;;;;8.38;4.22;;;;;;;11.28;55.64;102317.53;5076412;28;20494;-66
2022/10/12 06:55:55;;;;;;;9.38;4.57;;;;;;;11.28;55.72;102317.53;5074774;28;20041;-66
2022/10/12 06:58:23;;;;;;;8.65;4.18;;;;;;;11.28;55.92;102319.38;5082775;28;20049;-66
2022/10/12 07:00:52;;;;;;;8.52;4.45;;;;;;;11.28;55.87;102322.06;5083715;28;20490;-66
2022/10/12 07:03:21;;;;;;;8.57;3.90;;;;;;;11.27;55.94;102320.41;5091238;28;20048;-65
2022/10/12 07:05:49;;;;;;;10.68;4.38;;;;;;;11.27;56.06;102321.22;5086831;28;20049;-65
2022/10/12 07:08:16;;;;;;;12.80;3.78;;;;;;;11.18;56.12;102313.47;5085706;28;20045;-69
2022/10/12 07:10:44;;;;;;;10.23;4.57;;;;;;;11.25;56.08;102325.13;5084327;28;20051;-65
2022/10/12 07:13:12;;;;;;;7.95;4.75;;;;;;;11.25;56.13;102320.59;5084973;28;20057;-65
2022/10/12 07:15:40;;;;;;;9.38;3.95;;;;;;;11.25;56.26;102315.22;5084151;28;20057;-65
2022/10/12 07:18:08;;;;;;;7.60;3.88;;;;;;;11.24;56.10;102316.22;5080433;28;20048;-64
2022/10/12 07:20:39;;;;;;;9.48;4.32;;;;;;;11.24;56.09;102318.09;5082766;28;20059;-66
2022/10/12 07:23:07;;;;;;;11.05;4.60;;;;;;;11.23;56.23;102313.72;5083733;28;20044;-64
2022/10/12 07:25:35;;;;;;;7.85;4.60;;;;;;;11.20;56.30;102312.25;5083741;28;20051;-64
2022/10/12 07:28:04;;;;;;;10.80;4.70;;;;;;;11.19;56.25;102302.50;5085899;28;20058;-65
2022/10/12 07:30:32;;;;;;;10.27;4.25;;;;;;;11.21;56.33;102313.91;5085970;28;20048;-65
2022/10/12 07:33:00;;;;;;;6.43;3.72;;;;;;;11.22;56.21;102312.06;5084298;28;20136;-65
2022/10/12 07:35:28;;;;;;;12.90;4.40;;;;;;;11.23;56.33;102319.13;5084634;28;20435;-65
2022/10/12 07:37:57;;;;;;;10.20;4.28;;;;;;;11.23;56.27;102313.72;5084009;28;20044;-65
2022/10/12 07:40:25;;;;;;;10.07;4.18;;;;;;;11.23;56.37;102313.72;5083220;28;20052;-65
2022/10/12 07:42:53;;;;;;;10.75;4.47;;;;;;;11.23;56.33;102313.72;5085466;28;20058;-65
2022/10/12 07:45:41;;;;;;;7.32;3.90;;;;;;;11.23;56.24;102317.25;5080296;28;20060;-65
2022/10/12 07:48:09;;;;;;;9.40;4.18;;;;;;;11.24;56.28;102324.31;5083327;28;20055;-65
2022/10/12 07:50:37;;;;;;;10.77;4.28;;;;;;;11.25;56.29;102319.75;5086077;28;20502;-65
2022/10/12 07:53:06;;;;;;;37.15;4.93;;;;;;;11.26;56.32;102324.94;5080145;28;20429;-65
2022/10/12 07:55:34;;;;;;;7.22;4.15;;;;;;;11.25;56.35;102322.44;5084219;28;20388;-65
2022/10/12 07:58:02;;;;;;;8.05;4.03;;;;;;;11.26;56.41;102324.94;5083504;28;20053;-65
2022/10/12 08:00:30;;;;;;;7.68;4.55;;;;;;;11.24;56.53;102324.31;5085407;28;20048;-65
2022/10/12 08:02:59;;;;;;;7.70;4.32;;;;;;;11.24;56.27;102320.78;5079815;28;20045;-65
2022/10/12 08:05:27;;;;;;;7.60;3.95;;;;;;;11.24;56.66;102326.16;5074905;28;20044;-65
2022/10/12 08:07:55;;;;;;;13.07;4.45;;;;;;;11.25;56.54;102328.66;5082481;28;20055;-65
2022/10/12 08:10:24;;;;;;;7.82;4.53;;;;;;;11.25;56.68;102327.84;5076204;28;20052;-65
2022/10/12 08:12:52;;;;;;;9.15;4.95;;;;;;;11.24;56.47;102326.16;5084306;28;20056;-65
2022/10/12 08:15:19;;;;;;;8.20;4.18;;;;;;;11.28;56.59;102336.34;5080005;28;20041;-65
2022/10/12 08:17:47;;;;;;;7.03;3.88;;;;;;;11.28;56.63;102335.53;5081540;28;20044;-69
2022/10/12 08:20:15;;;;;;;7.63;4.78;;;;;;;11.28;56.78;102324.75;5086490;28;20443;-65
2022/10/12 08:22:43;;;;;;;11.30;5.20;;;;;;;11.27;56.77;102329.31;5077622;28;20052;-66
2022/10/12 08:25:10;;;;;;;7.45;4.22;;;;;;;11.27;56.80;102321.22;5080170;28;20048;-66
2022/10/12 08:27:40;;;;;;;10.38;4.47;;;;;;;11.29;56.64;102327.25;5081644;28;20048;-67
2022/10/12 08:30:09;;;;;;;8.95;4.00;;;;;;;11.29;56.56;102319.19;5082651;28;20051;-65
2022/10/12 08:32:37;;;;;;;10.55;4.47;;;;;;;11.21;56.69;102307.69;5079947;28;20055;-66
2022/10/12 08:35:05;;;;;;;9.25;4.22;;;;;;;11.30;56.82;102320.84;5077020;28;20054;-65
2022/10/12 08:37:33;;;;;;;9.55;5.03;;;;;;;11.30;56.93;102317.31;5073523;28;20279;-66
2022/10/12 08:40:01;;;;;;;13.80;4.90;;;;;;;11.30;56.89;102320.84;5076210;28;20119;-66
2022/10/12 08:42:40;;;;;;;15.50;5.32;;;;;;;11.33;56.87;102312.41;5082618;28;20048;-66
2022/10/12 08:45:27;;;;;;;11.30;5.85;;;;;;;11.36;56.84;102319.25;5076847;28;20048;-66
2022/10/12 08:48:01;;;;;;;11.50;5.65;;;;;;;11.36;57.04;102321.94;5082728;28;20040;-66
2022/10/12 08:50:34;;;;;;;12.15;5.03;;;;;;;11.36;57.08;102316.56;5072569;28;20056;-67
2022/10/12 08:53:11;;;;;;;10.55;5.72;;;;;;;11.39;57.23;102321.56;5081701;28;20062;-66
2022/10/12 08:55:41;;;;;;;;;;;;;;;11.42;57.15;102313.09;5081098;28;20049;-67
2022/10/12 08:58:15;;;;;;;15.00;6.70;;;;;;;11.44;57.39;102310.22;5077905;28;20277;-67
2022/10/12 09:00:49;;;;;;;8.77;5.22;;;;;;;11.43;57.26;102317.47;5076871;28;20116;-67
2022/10/12 09:03:30;;;;;;;10.43;5.18;;;;;;;11.43;57.25;102319.31;5082623;28;20044;-66
2022/10/12 09:06:06;;;;;;;12.30;4.43;;;;;;;11.45;57.15;102319.97;5076093;28;20044;-67
2022/10/12 09:08:49;;;;;;;7.55;4.13;;;;;;;11.47;57.20;102321.44;5085743;28;20128;-67
2022/10/12 09:11:28;;;;;;;13.00;5.53;;;;;;;11.49;57.30;102324.78;5081512;28;20050;-67
2022/10/12 09:14:05;;;;;;;13.25;5.75;;;;;;;11.50;57.44;102328.31;4725220;28;10000423;-66
2022/10/12 09:16:38;;;;;;;16.35;6.20;;;;;;;11.50;57.72;102331.00;5072698;28;20048;-66
2022/10/12 09:19:15;;;;;;;12.32;5.30;;;;;;;11.51;57.66;102332.66;5076841;28;20037;-65
2022/10/12 09:21:46;;;;;;;13.85;5.53;;;;;;;11.51;57.75;102332.66;5070464;28;20052;-66
2022/10/12 09:24:17;;;;;;;11.82;5.57;;;;;;;11.52;57.79;102335.16;5073995;28;20143;-68
2022/10/12 09:26:46;;;;;;;11.10;5.82;;;;;;;11.52;57.88;102329.78;5076019;28;20056;-66
2022/10/12 09:29:25;;;;;;;8.55;5.38;;;;;;;11.53;58.00;102333.31;5072305;28;20062;-68
2022/10/12 09:32:20;;;;;;;12.48;5.22;;;;;;;11.56;58.18;102336.44;5076163;28;20066;-67
2022/10/12 09:34:49;;;;;;;12.25;5.25;;;;;;;11.56;58.16;102331.06;5071671;28;20056;-67
2022/10/12 09:37:20;;;;;;;14.15;5.60;;;;;;;11.58;58.39;102320.09;5074346;28;20049;-68
2022/10/12 09:39:49;;;;;;;10.82;5.70;;;;;;;11.59;58.43;102319.06;5068695;28;20058;-68
2022/10/12 09:42:17;;;;;;;19.92;6.38;;;;;;;11.60;58.50;102328.81;5078895;28;20056;-67
2022/10/12 09:44:48;;;;;;;10.10;5.40;;;;;;;11.62;58.32;102322.22;5074546;28;20112;-68
2022/10/12 09:47:29;;;;;;;13.75;5.18;;;;;;;11.64;58.45;102325.56;5075090;28;20033;-68
2022/10/12 09:49:58;;;;;;;11.98;5.05;;;;;;;11.66;58.44;102325.38;5068170;28;20049;-68
2022/10/12 09:52:30;;;;;;;10.65;5.35;;;;;;;11.67;58.42;102321.63;5068452;28;20052;-68
2022/10/12 09:55:00;;;;;;;10.95;4.63;;;;;;;11.69;58.60;102322.28;5074306;28;20048;-68
2022/10/12 09:57:36;;;;;;;10.60;4.60;;;;;;;11.66;58.80;102303.81;5072711;28;20177;-69
2022/10/12 10:00:07;;;;;;;11.73;5.72;;;;;;;11.73;58.64;102308.22;5069208;28;20056;-67
2022/10/12 10:02:48;;;;;;;13.35;5.07;;;;;;;11.77;58.76;102305.16;5071279;28;20048;-67
2022/10/12 10:05:25;;;;;;;11.43;4.75;;;;;;;11.80;58.62;102310.19;5076039;28;20048;-64
2022/10/12 10:07:53;;;;;;;11.85;4.60;;;;;;;11.83;58.32;102305.25;5072262;28;20051;-64
2022/10/12 10:10:23;;;;;;;9.93;4.85;;;;;;;11.87;58.70;102301.13;5073177;28;20044;-69
2022/10/12 10:12:59;;;;;;;10.45;4.63;;;;;;;11.83;58.65;102272.09;5072843;28;20048;-66
2022/10/12 10:15:31;;;;;;;13.70;5.18;;;;;;;11.95;58.54;102284.00;5080047;28;20048;-64
2022/10/12 10:18:03;;;;;;;7.88;4.50;;;;;;;11.99;58.71;102287.97;5079593;28;20048;-65
2022/10/12 10:20:43;;;;;;;10.10;4.63;;;;;;;12.02;58.46;102291.09;5076843;28;20057;-66
2022/10/12 10:23:25;;;;;;;9.57;4.97;;;;;;;12.06;58.53;102294.22;5071016;28;20048;-67
2022/10/12 10:25:58;;;;;;;10.38;4.70;;;;;;;12.09;59.05;102296.53;5076033;28;20086;-66
2022/10/12 10:28:29;;;;;;;9.20;4.65;;;;;;;12.12;58.95;102295.31;5075942;28;20047;-66
2022/10/12 10:31:01;;;;;;;9.68;4.90;;;;;;;12.13;58.97;102297.81;5075662;28;20076;-67
2022/10/12 10:33:31;;;;;;;10.52;4.93;;;;;;;12.16;59.10;102297.38;5075604;28;20533;-66
2022/10/12 10:36:03;;;;;;;8.50;4.25;;;;;;;12.19;58.86;102297.00;5080840;28;20441;-66
2022/10/12 10:38:32;;;;;;;8.98;4.13;;;;;;;12.23;58.71;102294.72;5075761;28;20044;-65
2022/10/12 10:41:05;;;;;;;12.48;5.03;;;;;;;12.16;58.92;102283.06;5074818;28;20052;-65
2022/10/12 10:43:34;;;;;;;10.13;4.60;;;;;;;12.28;59.22;102297.66;5077488;28;20045;-66
2022/10/12 10:46:04;;;;;;;7.97;4.78;;;;;;;12.32;59.01;102285.47;5075827;28;20041;-64
2022/10/12 10:48:49;;;;;;;10.77;4.30;;;;;;;12.37;59.16;102293.78;5076322;28;20107;-65
2022/10/12 10:51:17;;;;;;;11.15;4.50;;;;;;;12.41;58.83;102280.75;5073860;28;20040;-65
2022/10/12 10:53:47;;;;;;;10.63;3.75;;;;;;;12.44;58.93;102274.94;5079278;28;20059;-65
2022/10/12 10:56:20;;;;;;;7.63;3.80;;;;;;;12.47;59.14;102277.25;5081345;28;20598;-66
2022/10/12 10:58:51;;;;;;;7.55;3.60;;;;;;;12.54;58.73;102275.41;5069383;28;20048;-65
2022/10/12 11:01:24;;;;;;;7.10;3.75;;;;;;;12.56;58.94;102273.34;5076501;28;20076;-64
2022/10/12 11:03:59;;;;;;;10.45;4.60;;;;;;;12.61;58.99;102266.34;5081094;28;20049;-63
2022/10/12 11:06:36;;;;;;;10.68;3.95;;;;;;;12.62;59.03;102264.47;5082904;28;20048;-62
2022/10/12 11:09:07;;;;;;;9.80;4.10;;;;;;;12.66;58.74;102257.63;5076506;28;20052;-65
2022/10/12 11:11:38;;;;;;;10.93;3.97;;;;;;;12.70;59.00;102256.19;5077282;28;20044;-67
2022/10/12 11:14:14;;;;;;;9.50;4.13;;;;;;;12.79;59.45;102249.59;5076807;28;20040;-67
2022/10/12 11:16:47;;;;;;;9.63;3.65;;;;;;;12.82;58.77;102245.66;5087291;28;20052;-64
2022/10/12 11:19:30;;;;;;;15.15;4.75;;;;;;;12.97;59.82;102246.34;5077252;28;20049;-65
2022/10/12 11:22:02;;;;;;;21.90;5.15;;;;;;;12.99;60.07;102230.78;5080294;28;20482;-65
2022/10/12 11:24:35;;;;;;;12.70;4.68;;;;;;;12.92;59.82;102222.66;5076622;28;20041;-65
2022/10/12 11:27:10;;;;;;;13.55;4.93;;;;;;;13.03;59.93;102232.03;5076158;28;20052;-65
2022/10/12 11:29:38;;;;;;;13.07;4.57;;;;;;;13.03;59.64;102226.63;5079553;28;20059;-66
2022/10/12 11:32:22;;;;;;;13.63;3.95;;;;;;;13.06;59.37;102226.22;5076451;28;20072;-66
2022/10/12 11:34:55;;;;;;;21.02;4.43;;;;;;;13.20;60.60;102210.91;5076167;28;20116;-65
2022/10/12 11:37:27;;;;;;;18.23;3.95;;;;;;;13.23;59.96;102207.81;5081932;28;20044;-65